Time;durP1;ratioP1;P1;durP2;ratioP2;P2;SDS_P1;SDS_P2;PMS_P1;PMS_P2;Temp;Humidity;BMP_temperature;BMP_pressure;BME280_temperature;BME280_humidity;BME280_pressure;Samples;Min_cycle;Max_cycle;Signal;HPM_P1;HPM_P2
2023/10/15 00:00:15;;;;;;;5.80;5.50;;;11.50;24.20;;;;;;6128245;23;20377;-54
2023/10/15 00:02:44;;;;;;;6.30;5.90;;;11.50;24.20;;;;;;6128257;23;20376;-55
2023/10/15 00:05:27;;;;;;;6.67;6.27;;;11.50;24.90;;;;;;6127975;23;20393;-54
2023/10/15 00:07:53;;;;;;;5.47;5.27;;;11.50;24.60;;;;;;6127660;23;20435;-54
2023/10/15 00:10:25;;;;;;;6.43;5.67;;;11.40;24.40;;;;;;6128210;23;20421;-54
2023/10/15 00:12:55;;;;;;;6.83;6.10;;;11.40;24.50;;;;;;6128751;23;20392;-57
2023/10/15 00:15:25;;;;;;;6.30;5.90;;;11.40;24.10;;;;;;6129142;23;20839;-54
2023/10/15 00:17:57;;;;;;;7.00;6.50;;;11.40;24.10;;;;;;6128029;23;20378;-53
2023/10/15 00:20:26;;;;;;;6.40;6.00;;;11.40;24.10;;;;;;6128425;23;20381;-53
2023/10/15 00:22:52;;;;;;;6.33;5.83;;;11.40;24.10;;;;;;6128897;23;20531;-54
2023/10/15 00:25:19;;;;;;;6.33;5.83;;;11.40;24.10;;;;;;6128341;23;20778;-53
2023/10/15 00:27:54;;;;;;;8.30;6.40;;;11.30;24.40;;;;;;6127415;23;20168;-55
2023/10/15 00:30:21;;;;;;;6.50;5.90;;;11.40;24.10;;;;;;6128782;23;20436;-53
2023/10/15 00:32:52;;;;;;;6.07;5.67;;;11.40;24.10;;;;;;6127487;23;20403;-55
2023/10/15 00:35:19;;;;;;;7.03;6.00;;;11.40;24.10;;;;;;6127937;23;20479;-55
2023/10/15 00:37:54;;;;;;;6.13;5.77;;;11.40;24.10;;;;;;6128225;23;20845;-54
2023/10/15 00:40:21;;;;;;;6.53;5.90;;;11.40;24.10;;;;;;6127796;23;20380;-54
2023/10/15 00:42:47;;;;;;;6.00;5.60;;;11.40;24.20;;;;;;6128045;23;20385;-54
2023/10/15 00:45:19;;;;;;;6.27;5.30;;;11.50;24.20;;;;;;6128285;23;20877;-53
2023/10/15 00:47:53;;;;;;;7.57;5.70;;;11.50;24.20;;;;;;6127747;23;20153;-55
2023/10/15 00:50:20;;;;;;;5.43;5.10;;;11.50;24.20;;;;;;6128106;23;20377;-56
2023/10/15 00:52:48;;;;;;;5.30;5.00;;;11.40;24.10;;;;;;6128544;23;20572;-54
2023/10/15 00:55:19;;;;;;;5.50;5.20;;;11.40;24.10;;;;;;6127695;23;20428;-55
2023/10/15 00:57:46;;;;;;;5.53;5.23;;;11.30;24.10;;;;;;6127280;23;20411;-60
2023/10/15 01:02:57;;;;;;;6.03;5.43;;;11.30;24.70;;;;;;6153953;23;20376;-59
2023/10/15 01:05:27;;;;;;;5.83;5.40;;;11.30;24.60;;;;;;6127996;23;20392;-60
2023/10/15 01:07:54;;;;;;;6.83;6.30;;;11.30;24.70;;;;;;6151797;23;20385;-59
2023/10/15 01:10:40;;;;;;;7.30;6.60;;;11.30;24.60;;;;;;6127759;23;20750;-59
2023/10/15 01:13:17;;;;;;;6.83;6.33;;;11.30;24.50;;;;;;6152825;23;20357;-59
2023/10/15 01:15:48;;;;;;;6.43;5.83;;;11.30;24.30;;;;;;6126680;23;20447;-59
2023/10/15 01:18:13;;;;;;;6.17;5.87;;;11.40;24.40;;;;;;6127743;23;20377;-60
2023/10/15 01:20:43;;;;;;;7.20;6.50;;;11.40;24.10;;;;;;6127490;23;20435;-59
2023/10/15 01:23:27;;;;;;;6.07;5.60;;;11.50;24.20;;;;;;6127516;23;20181;-59
2023/10/15 01:26:00;;;;;;;6.77;6.17;;;11.50;24.20;;;;;;6126695;23;20771;-59
2023/10/15 01:28:36;;;;;;;6.90;6.40;;;11.50;24.20;;;;;;6127634;23;20552;-60
2023/10/15 01:31:08;;;;;;;6.30;5.80;;;11.50;24.20;;;;;;6127640;23;20381;-59
2023/10/15 01:33:53;;;;;;;6.30;6.00;;;11.50;24.20;;;;;;6135639;23;20450;-76
2023/10/15 01:36:21;;;;;;;5.83;5.30;;;11.50;24.20;;;;;;6122000;23;20691;-76
2023/10/15 01:38:51;;;;;;;5.83;5.60;;;11.50;24.20;;;;;;6122192;23;20385;-75
2023/10/15 01:41:19;;;;;;;6.27;5.90;;;11.50;24.30;;;;;;6124590;23;20378;-75
2023/10/15 01:43:48;;;;;;;5.80;5.50;;;11.50;24.60;;;;;;6122491;23;20409;-75
2023/10/15 01:46:24;;;;;;;6.40;6.00;;;11.50;24.20;;;;;;6123866;23;20428;-75
2023/10/15 01:48:50;;;;;;;6.73;6.33;;;11.60;24.30;;;;;;6124315;23;20389;-76
2023/10/15 01:51:16;;;;;;;6.17;5.67;;;11.50;24.20;;;;;;6123551;23;20688;-76
2023/10/15 01:53:41;;;;;;;6.47;6.00;;;11.60;24.30;;;;;;6123310;23;20186;-76
2023/10/15 01:56:16;;;;;;;5.73;5.23;;;11.60;24.30;;;;;;6124307;23;21126;-76
2023/10/15 01:58:44;;;;;;;6.67;6.07;;;11.60;24.30;;;;;;6123837;23;20133;-75
2023/10/15 02:01:20;;;;;;;6.13;5.63;;;11.50;24.20;;;;;;6123977;23;20880;-76
2023/10/15 02:03:47;;;;;;;5.70;5.40;;;11.50;24.20;;;;;;6124314;23;20808;-75
2023/10/15 02:06:16;;;;;;;6.20;5.80;;;11.60;24.30;;;;;;6123487;23;20417;-76
2023/10/15 02:08:45;;;;;;;6.17;5.63;;;11.60;24.30;;;;;;6123636;23;20468;-76
2023/10/15 02:11:21;;;;;;;5.20;5.00;;;11.60;24.30;;;;;;6123437;23;20773;-76
2023/10/15 02:13:47;;;;;;;6.33;5.93;;;11.70;24.10;;;;;;6123127;23;20417;-76
2023/10/15 02:16:18;;;;;;;6.20;5.80;;;11.70;24.10;;;;;;6123175;23;20781;-76
2023/10/15 02:18:47;;;;;;;5.97;5.70;;;11.80;23.80;;;;;;6123745;23;20773;-76
2023/10/15 02:21:16;;;;;;;5.83;5.43;;;11.80;24.10;;;;;;6123329;23;20429;-76
2023/10/15 02:23:50;;;;;;;6.43;5.80;;;11.80;24.00;;;;;;6122140;23;20405;-76
2023/10/15 02:26:30;;;;;;;5.97;5.57;;;11.90;23.70;;;;;;6122560;23;20385;-76
2023/10/15 02:28:55;;;;;;;6.13;5.60;;;12.00;23.50;;;;;;6121485;23;20899;-76
2023/10/15 02:31:29;;;;;;;5.30;5.00;;;12.10;23.40;;;;;;6123035;23;20408;-76
2023/10/15 02:33:59;;;;;;;6.50;6.00;;;12.10;23.50;;;;;;6121459;23;20441;-76
2023/10/15 02:36:25;;;;;;;6.47;6.07;;;12.10;23.20;;;;;;6122592;23;20374;-76
2023/10/15 02:38:53;;;;;;;6.73;6.33;;;12.00;23.20;;;;;;6122449;23;20727;-76
2023/10/15 02:41:20;;;;;;;6.73;6.03;;;12.00;23.20;;;;;;6123358;23;20881;-76
2023/10/15 02:43:53;;;;;;;5.97;5.47;;;12.00;23.50;;;;;;6121561;23;20410;-75
2023/10/15 02:46:36;;;;;;;7.07;6.53;;;11.90;23.80;;;;;;6127519;23;20824;-76
2023/10/15 02:49:06;;;;;;;5.83;5.53;;;11.80;24.10;;;;;;6130847;23;20362;-76
2023/10/15 02:51:35;;;;;;;6.00;5.60;;;11.70;24.40;;;;;;6128459;23;20708;-76
2023/10/15 02:56:59;;;;;;;5.77;5.47;;;11.70;24.40;;;;;;6118918;23;20392;-76
2023/10/15 02:59:29;;;;;;;6.70;6.13;;;11.60;24.30;;;;;;6125026;23;20380;-76
2023/10/15 03:01:56;;;;;;;6.37;5.93;;;11.60;24.50;;;;;;6125746;23;20400;-76
2023/10/15 03:04:32;;;;;;;8.37;5.90;;;11.50;24.70;;;;;;6125354;23;20437;-76
2023/10/15 03:07:16;;;;;;;6.07;5.67;;;11.50;24.80;;;;;;6125730;23;20393;-75
2023/10/15 03:09:43;;;;;;;7.00;6.40;;;11.50;24.90;;;;;;6123815;23;20382;-76
2023/10/15 03:12:09;;;;;;;6.27;5.77;;;11.50;25.00;;;;;;6124626;23;20481;-76
2023/10/15 03:14:34;;;;;;;7.50;7.03;;;11.50;25.30;;;;;;6124497;23;20445;-76
2023/10/15 03:17:01;;;;;;;6.07;5.77;;;11.50;27.80;;;;;;6124397;23;20157;-76
2023/10/15 03:19:26;;;;;;;6.70;6.40;;;11.50;29.30;;;;;;6125192;23;20217;-76
2023/10/15 03:21:59;;;;;;;6.40;5.90;;;11.50;30.10;;;;;;6125214;23;20406;-76
2023/10/15 03:24:27;;;;;;;7.17;6.53;;;11.50;30.00;;;;;;6123671;23;20493;-76
2023/10/15 03:26:55;;;;;;;7.70;7.00;;;11.50;30.40;;;;;;6124961;23;20389;-76
2023/10/15 03:29:23;;;;;;;6.57;6.17;;;11.40;30.40;;;;;;6123988;23;20390;-76
2023/10/15 03:31:54;;;;;;;6.63;6.20;;;11.30;31.50;;;;;;6124803;23;20565;-76
2023/10/15 03:34:22;;;;;;;6.20;5.90;;;11.20;31.40;;;;;;6153596;23;20428;-75
2023/10/15 03:36:51;;;;;;;7.27;6.57;;;11.20;30.80;;;;;;6128870;23;20409;-76
2023/10/15 03:39:25;;;;;;;5.77;5.47;;;11.30;32.60;;;;;;6154963;23;20380;-76
2023/10/15 03:42:08;;;;;;;6.63;6.03;;;11.20;30.80;;;;;;6154917;23;20480;-76
2023/10/15 03:44:36;;;;;;;6.30;5.90;;;11.20;32.40;;;;;;6154323;23;20389;-76
2023/10/15 03:47:04;;;;;;;6.70;6.13;;;11.20;31.40;;;;;;6128383;23;20385;-75
2023/10/15 03:49:31;;;;;;;6.80;6.20;;;11.30;31.50;;;;;;6154437;23;20838;-76
2023/10/15 03:51:57;;;;;;;6.60;6.30;;;11.30;31.20;;;;;;6128269;23;20393;-76
2023/10/15 03:54:23;;;;;;;6.67;6.33;;;11.40;30.80;;;;;;6153417;23;20479;-76
2023/10/15 03:56:52;;;;;;;7.03;6.53;;;11.30;31.10;;;;;;6153678;23;20842;-76
2023/10/15 03:59:19;;;;;;;6.77;6.20;;;11.30;30.70;;;;;;6154535;23;20134;-76
2023/10/15 04:01:48;;;;;;;6.20;6.00;;;11.30;30.90;;;;;;6154710;23;20385;-76
2023/10/15 04:04:16;;;;;;;6.87;6.47;;;11.30;30.00;;;;;;6153552;23;20720;-76
2023/10/15 04:06:45;;;;;;;7.20;6.70;;;11.30;30.30;;;;;;6154144;23;20377;-76
2023/10/15 04:09:13;;;;;;;7.27;6.67;;;11.30;30.60;;;;;;6127742;23;20397;-76
2023/10/15 04:11:44;;;;;;;7.07;6.70;;;11.30;30.00;;;;;;6127555;23;20389;-76
2023/10/15 04:16:44;;;;;;;7.57;6.57;;;11.40;29.90;;;;;;6153998;23;20722;-76
2023/10/15 04:19:10;;;;;;;7.07;6.47;;;11.40;29.70;;;;;;6127742;23;20381;-76
2023/10/15 04:21:39;;;;;;;8.17;7.67;;;11.60;29.40;;;;;;6128083;23;20388;-76
2023/10/15 04:24:07;;;;;;;6.80;6.13;;;11.60;29.00;;;;;;6154857;23;20412;-76
2023/10/15 04:26:35;;;;;;;6.53;6.03;;;11.50;28.90;;;;;;6154397;23;20424;-76
2023/10/15 04:29:15;;;;;;;7.10;6.50;;;11.50;29.00;;;;;;6153135;23;20806;-76
2023/10/15 04:31:41;;;;;;;6.83;6.43;;;11.40;29.10;;;;;;6154713;23;20387;-76
2023/10/15 04:34:10;;;;;;;6.60;6.20;;;11.40;29.40;;;;;;6153890;23;20811;-77
2023/10/15 04:36:40;;;;;;;6.90;6.40;;;11.50;30.00;;;;;;6128333;23;20385;-76
2023/10/15 04:39:12;;;;;;;6.97;6.60;;;11.80;29.60;;;;;;6154318;23;20369;-76
2023/10/15 04:41:38;;;;;;;7.80;7.10;;;12.10;29.00;;;;;;6127636;23;20380;-76
2023/10/15 04:44:04;;;;;;;7.27;6.87;;;12.40;28.90;;;;;;6154084;23;20725;-76
2023/10/15 04:46:40;;;;;;;7.50;6.97;;;12.50;27.80;;;;;;6127585;23;20385;-76
2023/10/15 04:49:07;;;;;;;7.57;6.97;;;12.30;29.10;;;;;;6152561;23;20229;-76
2023/10/15 04:51:42;;;;;;;7.87;7.27;;;12.00;30.00;;;;;;6154727;23;20387;-76
2023/10/15 04:54:10;;;;;;;7.73;6.93;;;11.80;31.30;;;;;;6128666;23;21076;-77
2023/10/15 04:56:36;;;;;;;7.03;6.50;;;11.70;30.70;;;;;;6151961;23;20385;-76
2023/10/15 04:59:03;;;;;;;6.63;6.13;;;11.80;31.40;;;;;;6153936;23;20499;-77
2023/10/15 05:01:30;;;;;;;8.47;7.77;;;11.80;31.20;;;;;;6128812;23;20735;-76
2023/10/15 05:03:55;;;;;;;7.20;6.50;;;11.80;31.10;;;;;;6152646;23;20434;-76
2023/10/15 05:06:22;;;;;;;7.13;6.60;;;11.60;32.90;;;;;;6127501;23;20733;-76
2023/10/15 05:08:48;;;;;;;7.40;6.87;;;11.50;33.90;;;;;;6127633;23;20538;-75
2023/10/15 05:11:13;;;;;;;7.47;6.97;;;11.30;33.50;;;;;;6152176;23;20377;-75
2023/10/15 05:13:42;;;;;;;7.70;7.10;;;11.50;34.00;;;;;;6153581;23;20612;-76
2023/10/15 05:16:08;;;;;;;7.40;6.83;;;11.40;34.10;;;;;;6154036;23;20156;-77
2023/10/15 05:18:34;;;;;;;7.60;7.10;;;11.30;32.70;;;;;;6153258;23;20373;-77
2023/10/15 05:21:00;;;;;;;7.23;6.63;;;11.30;33.70;;;;;;6154492;23;20361;-77
2023/10/15 05:23:26;;;;;;;7.47;6.77;;;11.40;34.50;;;;;;6151913;23;20181;-77
2023/10/15 05:25:54;;;;;;;7.77;7.27;;;11.40;33.70;;;;;;6126817;23;20830;-75
2023/10/15 05:28:20;;;;;;;6.87;6.47;;;11.40;32.70;;;;;;6153429;23;20150;-76
2023/10/15 05:30:45;;;;;;;6.63;6.33;;;11.40;32.80;;;;;;6153954;23;20377;-76
2023/10/15 05:33:11;;;;;;;6.73;6.37;;;11.50;32.80;;;;;;6145974;23;20749;-76
2023/10/15 05:35:37;;;;;;;7.60;7.10;;;11.40;32.70;;;;;;6123641;23;20164;-76
2023/10/15 05:38:04;;;;;;;7.23;6.93;;;11.60;32.90;;;;;;6123441;23;20383;-76
2023/10/15 05:40:29;;;;;;;7.67;6.97;;;11.60;32.90;;;;;;6122280;23;20237;-77
2023/10/15 05:42:55;;;;;;;6.40;6.10;;;11.50;33.40;;;;;;6123736;23;20896;-76
2023/10/15 05:45:21;;;;;;;7.37;6.87;;;11.50;33.40;;;;;;6123989;23;20150;-76
2023/10/15 05:47:46;;;;;;;6.20;5.90;;;11.50;33.80;;;;;;6122470;23;20500;-76
2023/10/15 05:50:12;;;;;;;6.90;6.57;;;11.50;34.20;;;;;;6123464;23;20155;-76
2023/10/15 05:52:39;;;;;;;7.43;6.93;;;11.40;34.30;;;;;;6124174;23;20178;-75
2023/10/15 05:55:06;;;;;;;7.30;6.70;;;11.30;34.50;;;;;;6122813;23;20417;-75
2023/10/15 05:57:31;;;;;;;8.93;6.40;;;11.20;35.40;;;;;;6124139;23;20378;-75
2023/10/15 05:59:57;;;;;;;7.60;6.87;;;11.20;34.50;;;;;;6122910;23;20437;-75
2023/10/15 06:02:22;;;;;;;7.47;7.07;;;11.20;35.40;;;;;;6122727;23;20225;-75
2023/10/15 06:04:48;;;;;;;7.23;6.93;;;11.10;35.10;;;;;;6123589;23;20157;-76
2023/10/15 06:07:15;;;;;;;7.07;6.67;;;11.10;35.40;;;;;;6123738;23;20177;-75
2023/10/15 06:09:41;;;;;;;8.10;7.60;;;11.10;34.90;;;;;;6124511;23;20502;-75
2023/10/15 06:12:06;;;;;;;7.57;7.07;;;11.20;34.80;;;;;;6122435;23;20481;-75
2023/10/15 06:14:33;;;;;;;7.53;6.93;;;11.30;33.90;;;;;;6124307;23;20173;-76
2023/10/15 06:16:59;;;;;;;7.90;7.50;;;11.30;34.00;;;;;;6124629;23;20146;-75
2023/10/15 06:19:25;;;;;;;7.20;6.87;;;11.40;33.20;;;;;;6122613;23;20960;-75
2023/10/15 06:21:51;;;;;;;7.60;7.00;;;11.40;34.40;;;;;;6124543;23;20370;-75
2023/10/15 06:24:17;;;;;;;7.53;7.00;;;11.50;34.00;;;;;;6122706;23;20737;-75
2023/10/15 06:26:44;;;;;;;8.17;7.67;;;11.80;33.10;;;;;;6122800;23;20382;-75
2023/10/15 06:29:10;;;;;;;7.50;7.10;;;12.00;31.10;;;;;;6124305;23;20158;-75
2023/10/15 06:31:38;;;;;;;7.13;6.73;;;12.10;31.90;;;;;;6122862;23;20407;-76
2023/10/15 06:34:06;;;;;;;8.17;7.57;;;12.20;30.80;;;;;;6122541;23;20943;-76
2023/10/15 06:36:32;;;;;;;8.40;7.50;;;12.30;30.70;;;;;;6122939;23;20389;-77
2023/10/15 06:38:58;;;;;;;7.33;6.73;;;12.40;30.40;;;;;;6124403;23;20378;-76
2023/10/15 06:41:26;;;;;;;7.67;7.10;;;12.50;29.60;;;;;;6113992;23;20381;-76
2023/10/15 06:43:52;;;;;;;8.70;7.90;;;12.20;30.00;;;;;;6122346;23;20173;-76
2023/10/15 06:46:17;;;;;;;8.00;7.50;;;12.00;30.00;;;;;;6124054;23;20711;-77
2023/10/15 06:48:43;;;;;;;8.93;8.20;;;11.90;31.40;;;;;;6123034;23;20178;-77
2023/10/15 06:51:09;;;;;;;7.10;6.80;;;11.90;31.80;;;;;;6123260;23;20161;-77
2023/10/15 06:53:34;;;;;;;8.43;7.93;;;11.80;32.10;;;;;;6121285;23;20437;-77
2023/10/15 06:56:01;;;;;;;8.33;7.87;;;11.70;31.70;;;;;;6123752;23;20154;-76
2023/10/15 06:58:28;;;;;;;8.20;7.80;;;11.70;31.50;;;;;;6123902;23;20177;-77
2023/10/15 07:00:58;;;;;;;7.53;7.13;;;11.70;31.80;;;;;;6124500;23;20376;-76
2023/10/15 07:03:23;;;;;;;8.33;7.63;;;11.60;31.70;;;;;;6124614;23;20400;-76
2023/10/15 07:05:49;;;;;;;8.30;7.60;;;11.50;32.40;;;;;;6120753;23;20730;-77
2023/10/15 07:08:15;;;;;;;8.27;7.77;;;11.40;31.70;;;;;;6124782;23;20150;-78
2023/10/15 07:10:41;;;;;;;8.43;7.77;;;11.50;32.80;;;;;;6123723;23;20161;-77
2023/10/15 07:13:07;;;;;;;7.60;6.80;;;11.50;31.90;;;;;;6122520;23;20272;-79
2023/10/15 07:15:36;;;;;;;7.90;7.20;;;11.50;32.80;;;;;;6123679;23;20872;-77
2023/10/15 07:18:03;;;;;;;7.20;6.70;;;11.70;32.20;;;;;;6122315;23;20162;-78
2023/10/15 07:20:29;;;;;;;8.07;7.57;;;11.80;31.60;;;;;;6124359;23;20385;-77
2023/10/15 07:22:56;;;;;;;7.93;7.33;;;12.00;30.10;;;;;;6123728;23;20541;-77
2023/10/15 07:25:29;;;;;;;7.70;7.20;;;12.20;29.80;;;;;;6125405;23;20378;-77
2023/10/15 07:27:59;;;;;;;7.97;7.43;;;12.20;28.30;;;;;;6123623;23;20449;-77
2023/10/15 07:30:25;;;;;;;8.07;7.37;;;12.30;29.10;;;;;;6125446;23;20925;-78
2023/10/15 07:32:58;;;;;;;7.67;7.20;;;12.30;27.90;;;;;;6124844;23;20425;-77
2023/10/15 07:35:25;;;;;;;7.13;6.57;;;12.40;28.20;;;;;;6127289;23;20416;-78
2023/10/15 07:37:52;;;;;;;7.87;7.37;;;12.50;27.80;;;;;;6126536;23;20409;-77
2023/10/15 07:40:23;;;;;;;8.80;7.10;;;12.60;27.70;;;;;;6129877;23;20374;-78
2023/10/15 07:42:59;;;;;;;6.60;6.20;;;12.60;27.80;;;;;;6124587;23;20434;-78
2023/10/15 07:45:28;;;;;;;7.47;6.97;;;12.60;26.90;;;;;;6126434;23;20394;-78
2023/10/15 07:48:02;;;;;;;7.83;7.33;;;12.60;27.20;;;;;;6126135;23;20460;-77
2023/10/15 07:50:29;;;;;;;8.07;7.40;;;12.60;27.40;;;;;;6128346;23;20386;-77
2023/10/15 07:52:55;;;;;;;7.13;6.63;;;12.60;26.90;;;;;;6126223;23;20880;-78
2023/10/15 07:55:23;;;;;;;7.60;7.00;;;12.50;26.70;;;;;;6127384;23;20429;-77
2023/10/15 07:57:50;;;;;;;6.80;6.23;;;12.50;27.20;;;;;;6128008;23;20444;-77
2023/10/15 08:00:22;;;;;;;8.00;7.27;;;12.70;26.70;;;;;;6126727;23;20386;-77
2023/10/15 08:02:51;;;;;;;7.07;6.47;;;12.80;25.70;;;;;;6126370;23;20477;-77
2023/10/15 08:05:21;;;;;;;7.80;7.20;;;13.00;25.30;;;;;;6127430;23;20868;-78
2023/10/15 08:07:48;;;;;;;6.67;6.13;;;13.00;25.20;;;;;;6124851;23;20486;-78
2023/10/15 08:10:14;;;;;;;6.90;6.40;;;13.10;24.90;;;;;;6125233;23;20393;-78
2023/10/15 08:12:39;;;;;;;6.90;6.60;;;13.10;23.80;;;;;;6126527;23;20389;-77
2023/10/15 08:15:06;;;;;;;7.70;7.00;;;13.20;22.50;;;;;;6124572;23;20433;-78
2023/10/15 08:17:32;;;;;;;8.23;7.50;;;13.20;21.70;;;;;;6125642;23;20241;-78
2023/10/15 08:19:58;;;;;;;7.17;6.67;;;13.20;21.70;;;;;;6127076;23;20378;-77
2023/10/15 08:22:25;;;;;;;6.80;6.30;;;13.10;22.40;;;;;;6125545;23;20210;-78
2023/10/15 08:24:50;;;;;;;7.00;6.50;;;13.10;22.30;;;;;;6127531;23;20713;-77
2023/10/15 08:27:16;;;;;;;7.30;6.77;;;13.10;20.70;;;;;;6126638;23;20389;-77
2023/10/15 08:29:42;;;;;;;6.47;5.97;;;13.20;21.20;;;;;;6127736;23;20166;-77
2023/10/15 08:32:16;;;;;;;7.23;6.53;;;13.00;21.80;;;;;;6128018;23;20182;-77
2023/10/15 08:34:45;;;;;;;6.83;6.23;;;13.00;22.30;;;;;;6157158;23;20491;-78
2023/10/15 08:37:11;;;;;;;6.83;6.33;;;13.00;22.90;;;;;;6156296;23;20399;-78
2023/10/15 08:39:39;;;;;;;7.50;6.87;;;13.10;21.70;;;;;;6156196;23;20717;-77
2023/10/15 08:42:24;;;;;;;6.80;6.30;;;13.10;20.40;;;;;;6155094;23;20258;-77
2023/10/15 08:44:56;;;;;;;6.77;6.17;;;13.10;21.00;;;;;;6130484;23;20380;-77
2023/10/15 08:47:23;;;;;;;6.53;5.67;;;12.90;21.00;;;;;;6155421;23;20436;-77
2023/10/15 08:49:52;;;;;;;5.53;5.20;;;12.90;20.90;;;;;;6130455;23;20412;-78
2023/10/15 08:52:19;;;;;;;5.93;5.60;;;12.90;20.80;;;;;;6155014;23;20408;-77
2023/10/15 08:54:46;;;;;;;6.10;5.70;;;12.90;20.60;;;;;;6129975;23;20519;-78
2023/10/15 08:57:13;;;;;;;6.00;5.67;;;12.90;20.70;;;;;;6129972;23;20380;-77
2023/10/15 08:59:41;;;;;;;6.63;6.17;;;13.00;21.10;;;;;;6154218;23;20373;-77
2023/10/15 09:02:08;;;;;;;8.17;7.50;;;13.00;21.00;;;;;;6154003;23;20408;-77
2023/10/15 09:04:34;;;;;;;8.00;7.10;;;13.10;20.40;;;;;;6126504;23;20391;-77
2023/10/15 09:07:01;;;;;;;6.80;6.37;;;13.10;20.30;;;;;;6153395;23;20641;-76
2023/10/15 09:09:33;;;;;;;7.60;7.10;;;13.20;20.60;;;;;;6154670;23;20452;-77
2023/10/15 09:12:06;;;;;;;5.87;5.57;;;13.10;20.90;;;;;;6154595;23;20409;-77
2023/10/15 09:14:38;;;;;;;6.30;5.90;;;12.80;21.40;;;;;;6153598;23;20423;-77
2023/10/15 09:17:03;;;;;;;7.53;6.63;;;12.60;22.90;;;;;;6127873;23;20457;-77
2023/10/15 09:19:31;;;;;;;7.60;6.83;;;12.50;24.90;;;;;;6154617;23;20377;-78
2023/10/15 09:21:57;;;;;;;6.67;6.23;;;12.40;25.60;;;;;;6152584;23;20149;-77
2023/10/15 09:24:23;;;;;;;6.60;6.20;;;12.20;25.00;;;;;;6153532;23;20384;-77
2023/10/15 09:26:48;;;;;;;5.93;5.73;;;12.10;27.80;;;;;;6152755;23;20600;-76
2023/10/15 09:29:20;;;;;;;6.17;5.87;;;11.90;25.60;;;;;;6151950;23;20161;-77
2023/10/15 09:31:47;;;;;;;6.80;6.47;;;11.80;25.20;;;;;;6153605;23;20169;-78
2023/10/15 09:34:12;;;;;;;5.80;5.50;;;11.80;26.90;;;;;;6123482;23;20464;-78
2023/10/15 09:36:38;;;;;;;7.40;6.90;;;11.70;26.70;;;;;;6123853;23;20391;-78
2023/10/15 09:39:13;;;;;;;7.73;7.10;;;11.70;27.90;;;;;;6123164;23;20150;-76
2023/10/15 09:41:41;;;;;;;6.57;6.17;;;11.60;26.60;;;;;;6124503;23;20156;-78
2023/10/15 09:44:14;;;;;;;7.40;6.90;;;11.80;26.60;;;;;;6124402;23;20723;-79
2023/10/15 09:46:43;;;;;;;6.87;6.30;;;11.80;26.80;;;;;;6123521;23;20405;-76
2023/10/15 09:49:10;;;;;;;6.97;6.40;;;11.80;26.40;;;;;;6123416;23;20381;-77
2023/10/15 09:51:37;;;;;;;7.03;6.73;;;11.90;26.10;;;;;;6123928;23;20428;-79
2023/10/15 09:54:03;;;;;;;7.73;7.30;;;11.90;26.10;;;;;;6123401;23;20433;-77
2023/10/15 09:56:30;;;;;;;7.40;6.90;;;11.80;26.60;;;;;;6123181;23;20378;-76
2023/10/15 09:58:56;;;;;;;8.90;8.03;;;12.00;27.40;;;;;;6123613;23;20926;-77
2023/10/15 10:01:28;;;;;;;8.23;7.53;;;12.20;26.10;;;;;;6123934;23;20410;-77
2023/10/15 10:04:23;;;;;;;7.90;7.30;;;12.20;26.20;;;;;;6121317;23;20182;-77
2023/10/15 10:06:48;;;;;;;6.57;6.07;;;12.40;25.00;;;;;;6123781;23;20367;-76
2023/10/15 10:09:48;;;;;;;6.57;6.27;;;12.60;21.20;;;;;;6122179;23;20730;-77
2023/10/15 10:12:45;;;;;;;6.70;6.10;;;12.70;18.40;;;;;;6121458;23;20188;-77
2023/10/15 10:15:40;;;;;;;8.13;6.00;;;12.90;16.90;;;;;;6121889;23;20830;-76
2023/10/15 10:18:07;;;;;;;6.87;6.47;;;13.00;17.00;;;;;;6124559;23;20366;-82
2023/10/15 10:20:35;;;;;;;6.40;6.00;;;13.10;17.00;;;;;;6125289;23;20377;-81
2023/10/15 10:23:03;;;;;;;5.70;5.40;;;13.10;17.10;;;;;;6128332;23;20895;-82
2023/10/15 10:25:34;;;;;;;5.30;4.97;;;13.00;18.00;;;;;;6122692;23;20393;-80
2023/10/15 10:28:08;;;;;;;5.90;5.50;;;13.20;17.10;;;;;;6122411;23;20381;-82
2023/10/15 10:30:34;;;;;;;6.87;6.17;;;13.30;17.30;;;;;;6127093;23;20402;-81
2023/10/15 10:33:03;;;;;;;6.53;5.93;;;13.40;17.20;;;;;;6125728;23;20488;-80
2023/10/15 10:35:40;;;;;;;5.63;5.33;;;13.50;17.30;;;;;;6123314;23;20170;-82
2023/10/15 10:38:07;;;;;;;6.80;6.13;;;13.50;17.30;;;;;;6129520;23;20362;-77
2023/10/15 10:40:56;;;;;;;5.70;5.20;;;13.70;16.70;;;;;;6121277;23;20374;-78
2023/10/15 10:43:24;;;;;;;6.83;6.33;;;13.80;16.40;;;;;;6123154;23;20453;-79
2023/10/15 10:45:54;;;;;;;5.33;4.93;;;13.90;15.60;;;;;;6123022;23;20389;-79
2023/10/15 10:48:33;;;;;;;5.17;4.97;;;14.00;14.50;;;;;;6124439;23;20370;-79
2023/10/15 10:51:52;;;;;;;5.73;5.27;;;13.90;14.20;;;;;;6118855;23;20382;-79
2023/10/15 10:53:59;;;;;;;6.20;5.80;;;14.00;13.40;;;;;;6116113;23;20438;-77
2023/10/15 10:56:44;;;;;;;5.70;5.20;;;14.00;13.40;;;;;;6122452;23;20381;-77
2023/10/15 10:59:11;;;;;;;6.00;5.60;;;13.90;12.80;;;;;;6120633;23;20237;-77
2023/10/15 11:01:42;;;;;;;6.13;5.80;;;14.00;13.00;;;;;;6122506;23;20385;-78
2023/10/15 11:04:09;;;;;;;5.30;5.00;;;14.00;14.60;;;;;;6122307;23;20374;-76
2023/10/15 11:06:45;;;;;;;4.60;4.43;;;13.60;11.70;;;;;;6121962;23;20373;-77
2023/10/15 11:09:22;;;;;;;4.80;4.60;;;13.60;11.80;;;;;;6120782;23;20847;-76
2023/10/15 11:11:56;;;;;;;5.50;5.20;;;13.50;11.10;;;;;;6121197;23;20629;-77
2023/10/15 11:14:23;;;;;;;5.33;5.03;;;13.30;11.30;;;;;;6121445;23;20513;-77
2023/10/15 11:16:50;;;;;;;5.57;5.07;;;13.00;12.40;;;;;;6122803;23;20374;-78
2023/10/15 11:19:28;;;;;;;5.10;4.90;;;12.70;12.90;;;;;;6122717;23;20876;-78
2023/10/15 11:21:54;;;;;;;5.03;4.57;;;12.70;12.80;;;;;;6125236;23;20381;-76
2023/10/15 11:24:24;;;;;;;5.57;5.37;;;12.50;13.80;;;;;;6124391;23;20695;-76
2023/10/15 11:26:53;;;;;;;5.27;4.97;;;12.40;14.40;;;;;;6124507;23;20366;-76
2023/10/15 11:29:19;;;;;;;4.60;4.40;;;12.40;14.50;;;;;;6122869;23;20401;-77
2023/10/15 11:31:48;;;;;;;5.20;4.90;;;12.30;15.20;;;;;;6121673;23;20390;-76
2023/10/15 11:34:22;;;;;;;5.10;4.70;;;12.20;16.00;;;;;;6121805;23;20240;-78
2023/10/15 11:36:49;;;;;;;5.50;5.20;;;12.20;16.40;;;;;;6123694;23;20361;-78
2023/10/15 11:39:18;;;;;;;5.77;5.47;;;12.20;16.90;;;;;;6122369;23;20481;-80
2023/10/15 11:41:50;;;;;;;6.00;5.50;;;12.10;17.30;;;;;;6124027;23;20748;-77
2023/10/15 11:44:18;;;;;;;6.33;5.90;;;12.20;17.80;;;;;;6123322;23;20374;-76
2023/10/15 11:46:46;;;;;;;5.10;4.90;;;12.20;17.80;;;;;;6123559;23;20382;-75
2023/10/15 11:49:12;;;;;;;6.07;5.57;;;12.30;17.60;;;;;;6123320;23;20412;-76
2023/10/15 11:51:39;;;;;;;5.20;4.80;;;12.30;18.50;;;;;;6123239;23;20852;-77
2023/10/15 11:54:09;;;;;;;5.80;5.50;;;12.50;18.70;;;;;;6122008;23;20621;-77
2023/10/15 11:56:37;;;;;;;6.50;6.10;;;12.60;22.60;;;;;;6121882;23;20468;-77
2023/10/15 11:59:03;;;;;;;5.87;5.47;;;12.80;23.00;;;;;;6124108;23;20382;-77
2023/10/15 12:01:29;;;;;;;5.90;5.60;;;13.00;21.70;;;;;;6123386;23;20863;-77
2023/10/15 12:04:00;;;;;;;6.07;5.70;;;13.00;22.20;;;;;;6122279;23;20402;-78
2023/10/15 12:06:26;;;;;;;6.00;5.70;;;13.10;21.40;;;;;;6120856;23;20381;-77
2023/10/15 12:08:52;;;;;;;6.70;6.30;;;13.00;19.40;;;;;;6122463;23;20390;-76
2023/10/15 12:11:18;;;;;;;6.10;5.80;;;13.20;20.90;;;;;;6123668;23;20225;-77
2023/10/15 12:13:44;;;;;;;6.87;6.50;;;13.40;17.90;;;;;;6123120;23;20468;-77
2023/10/15 12:16:11;;;;;;;6.27;5.87;;;13.50;15.60;;;;;;6123621;23;20162;-76
2023/10/15 12:18:36;;;;;;;6.10;5.67;;;13.40;15.70;;;;;;6121999;23;20390;-77
2023/10/15 12:21:02;;;;;;;6.77;5.87;;;13.20;16.60;;;;;;6123821;23;20429;-76
2023/10/15 12:23:28;;;;;;;7.10;6.50;;;13.30;17.10;;;;;;6122805;23;20405;-75
2023/10/15 12:25:53;;;;;;;6.17;5.77;;;13.40;16.60;;;;;;6123344;23;20146;-76
2023/10/15 12:28:19;;;;;;;7.10;6.27;;;13.50;16.20;;;;;;6127967;23;20154;-77
2023/10/15 12:30:45;;;;;;;6.83;6.43;;;13.50;17.30;;;;;;6124103;23;20181;-78
2023/10/15 12:33:15;;;;;;;6.47;5.93;;;13.50;15.40;;;;;;6139004;23;20291;-77
2023/10/15 12:35:41;;;;;;;6.00;5.50;;;13.40;15.50;;;;;;6150665;23;20167;-77
2023/10/15 12:38:11;;;;;;;8.13;5.67;;;13.50;14.90;;;;;;6128119;23;20717;-77
2023/10/15 12:40:38;;;;;;;5.90;5.53;;;13.60;15.70;;;;;;6125195;23;20157;-78
2023/10/15 12:43:08;;;;;;;6.30;5.90;;;13.60;14.50;;;;;;6151334;23;20492;-75
2023/10/15 12:45:37;;;;;;;5.43;5.23;;;13.70;13.50;;;;;;6127808;23;20774;-78
2023/10/15 12:48:05;;;;;;;5.57;5.27;;;13.70;13.20;;;;;;6126732;23;20396;-77
2023/10/15 12:50:31;;;;;;;5.57;5.37;;;13.70;13.10;;;;;;6127002;23;20874;-77
2023/10/15 12:52:58;;;;;;;6.07;5.73;;;13.70;13.00;;;;;;6152231;23;20433;-77
2023/10/15 12:55:24;;;;;;;5.70;5.33;;;13.50;12.60;;;;;;6126631;23;20425;-76
2023/10/15 12:57:50;;;;;;;5.27;5.07;;;13.40;11.60;;;;;;6127316;23;20776;-77
2023/10/15 13:00:21;;;;;;;5.03;4.83;;;13.00;11.90;;;;;;6152494;23;20373;-77
2023/10/15 13:02:50;;;;;;;5.60;5.30;;;13.20;11.30;;;;;;6152309;23;20475;-77
2023/10/15 13:05:21;;;;;;;4.90;4.70;;;13.10;10.80;;;;;;6128273;23;20519;-76